^^
Saratoga-Weather Station Historical Data
Daily Summary for October 1, 2021 Units:  Both    English   Metric
Daily Weekly Monthly Yearly Custom
  High: Low: Average:
Temperature: 64.8 °F /  18.2 °C 39.9 °F /  4.4 °C 52 °F /  11.1 °C
Dew Point: 51.4 °F /  10.8 °C 38.7 °F /  3.7 °C 45.7 °F /  7.6 °C
Humidity: 97% 51% 81%
Wind Speed: 6.9mph /  11.1km/h - 0.7mph /  1.2km/h
Wind Gust: 12mph /  19.3km/h - -
Wind- - SSW
Pressure: 30.2 in /  1024.0 hPa 30 in /  1015.2 hPa -
Precipitation: 0 in /  0.0 mm    
Historical Graphs
 
 
Tabular Data for October 1, 2021
Time Temperature Dew Point Pressure Wind Wind Speed Wind Gust Humidity Rainfall Rate (Hourly) solar
00:03 45.3 °F /  7.4 °C 41.9 °F /  5.5 °C 30.2in /  1024.0hPa Calm     88% 0in /  0.0mm 0 W/m2
00:08 45.3 °F /  7.4 °C 42.3 °F /  5.7 °C 30.2in /  1023.7hPa Calm     89% 0in /  0.0mm 0 W/m2
00:13 45.3 °F /  7.4 °C 42.3 °F /  5.7 °C 30.2in /  1023.7hPa Calm     89% 0in /  0.0mm 0 W/m2
00:18 45.1 °F /  7.3 °C 42.1 °F /  5.6 °C 30.2in /  1023.7hPa Calm     89% 0in /  0.0mm 0 W/m2
00:23 45.1 °F /  7.3 °C 42.1 °F /  5.6 °C 30.2in /  1023.7hPa Calm     89% 0in /  0.0mm 0 W/m2
00:28 45 °F /  7.2 °C 42.3 °F /  5.7 °C 30.2in /  1023.7hPa Calm     90% 0in /  0.0mm 0 W/m2
00:33 45 °F /  7.2 °C 42.3 °F /  5.7 °C 30.2in /  1023.7hPa Calm     90% 0in /  0.0mm 0 W/m2
00:38 45 °F /  7.2 °C 42.3 °F /  5.7 °C 30.2in /  1023.4hPa Calm     90% 0in /  0.0mm 0 W/m2
00:43 44.8 °F /  7.1 °C 42.1 °F /  5.6 °C 30.2in /  1023.4hPa Calm     90% 0in /  0.0mm 0 W/m2
00:48 45 °F /  7.2 °C 42.4 °F /  5.8 °C 30.2in /  1023.4hPa Calm     91% 0in /  0.0mm 0 W/m2
00:53 45 °F /  7.2 °C 42.4 °F /  5.8 °C 30.2in /  1023.4hPa Calm     91% 0in /  0.0mm 0 W/m2
00:58 45 °F /  7.2 °C 42.4 °F /  5.8 °C 30.2in /  1023.4hPa WNW 0.9mph /  1.4km/h 2mph /  3.2km/h 91% 0in /  0.0mm 0 W/m2
01:04 45 °F /  7.2 °C 42.4 °F /  5.8 °C 30.2in /  1023.4hPa Calm     91% 0in /  0.0mm 0 W/m2
01:09 45 °F /  7.2 °C 42.4 °F /  5.8 °C 30.2in /  1023.4hPa Calm     91% 0in /  0.0mm 0 W/m2
01:14 45 °F /  7.2 °C 42.4 °F /  5.8 °C 30.2in /  1023.4hPa Calm     91% 0in /  0.0mm 0 W/m2
01:19 45 °F /  7.2 °C 42.4 °F /  5.8 °C 30.2in /  1023.4hPa Calm   1mph /  1.6km/h 91% 0in /  0.0mm 0 W/m2
01:24 44.8 °F /  7.1 °C 42.3 °F /  5.7 °C 30.2in /  1023.0hPa Calm     91% 0in /  0.0mm 0 W/m2
01:29 44.6 °F /  7 °C 42.1 °F /  5.6 °C 30.2in /  1023.0hPa Calm   1mph /  1.6km/h 91% 0in /  0.0mm 0 W/m2
01:34 44.4 °F /  6.9 °C 41.9 °F /  5.5 °C 30.2in /  1023.0hPa Calm     91% 0in /  0.0mm 0 W/m2
01:39 44.2 °F /  6.8 °C 41.7 °F /  5.4 °C 30.2in /  1023.0hPa Calm     91% 0in /  0.0mm 0 W/m2
01:44 44.2 °F /  6.8 °C 41.7 °F /  5.4 °C 30.2in /  1023.0hPa Calm     91% 0in /  0.0mm 0 W/m2
01:49 44.1 °F /  6.7 °C 41.5 °F /  5.3 °C 30.2in /  1023.0hPa Calm     91% 0in /  0.0mm 0 W/m2
01:54 43.9 °F /  6.6 °C 41.4 °F /  5.2 °C 30.2in /  1023.0hPa Calm     91% 0in /  0.0mm 0 W/m2
01:59 43.7 °F /  6.5 °C 41.2 °F /  5.1 °C 30.2in /  1022.7hPa Calm     91% 0in /  0.0mm 0 W/m2
02:04 43.5 °F /  6.4 °C 41 °F /  5 °C 30.2in /  1022.7hPa Calm     91% 0in /  0.0mm 0 W/m2
02:09 43.3 °F /  6.3 °C 41.2 °F /  5.1 °C 30.2in /  1022.7hPa Calm     92% 0in /  0.0mm 0 W/m2
02:14 43.3 °F /  6.3 °C 41.2 °F /  5.1 °C 30.2in /  1022.7hPa Calm     92% 0in /  0.0mm 0 W/m2
02:19 43.3 °F /  6.3 °C 41.2 °F /  5.1 °C 30.2in /  1022.7hPa Calm     92% 0in /  0.0mm 0 W/m2
02:24 43.2 °F /  6.2 °C 41 °F /  5 °C 30.2in /  1022.7hPa Calm     92% 0in /  0.0mm 0 W/m2
02:29 43.2 °F /  6.2 °C 41.4 °F /  5.2 °C 30.2in /  1022.7hPa Calm     93% 0in /  0.0mm 0 W/m2
02:34 43.2 °F /  6.2 °C 41.4 °F /  5.2 °C 30.2in /  1022.4hPa Calm     93% 0in /  0.0mm 0 W/m2
02:39 43 °F /  6.1 °C 41.2 °F /  5.1 °C 30.2in /  1022.4hPa Calm     93% 0in /  0.0mm 0 W/m2
02:44 43 °F /  6.1 °C 41.2 °F /  5.1 °C 30.2in /  1022.4hPa Calm     93% 0in /  0.0mm 0 W/m2
02:49 43 °F /  6.1 °C 41.2 °F /  5.1 °C 30.2in /  1022.7hPa WNW 0.9mph /  1.4km/h 1mph /  1.6km/h 93% 0in /  0.0mm 0 W/m2
02:54 42.8 °F /  6 °C 41 °F /  5 °C 30.2in /  1022.4hPa Calm   1mph /  1.6km/h 93% 0in /  0.0mm 0 W/m2
02:59 42.6 °F /  5.9 °C 40.8 °F /  4.9 °C 30.2in /  1022.4hPa Calm     93% 0in /  0.0mm 0 W/m2
03:04 42.4 °F /  5.8 °C 40.6 °F /  4.8 °C 30.2in /  1022.4hPa Calm   1mph /  1.6km/h 93% 0in /  0.0mm 0 W/m2
03:09 42.4 °F /  5.8 °C 40.6 °F /  4.8 °C 30.2in /  1022.4hPa Calm     93% 0in /  0.0mm 0 W/m2
03:14 42.4 °F /  5.8 °C 40.6 °F /  4.8 °C 30.2in /  1022.0hPa Calm   1mph /  1.6km/h 93% 0in /  0.0mm 0 W/m2
03:19 42.3 °F /  5.7 °C 40.5 °F /  4.7 °C 30.2in /  1022.0hPa Calm     93% 0in /  0.0mm 0 W/m2
03:24 42.3 °F /  5.7 °C 40.6 °F /  4.8 °C 30.2in /  1022.0hPa Calm   1mph /  1.6km/h 94% 0in /  0.0mm 0 W/m2
03:29 42.3 °F /  5.7 °C 40.6 °F /  4.8 °C 30.2in /  1022.0hPa Calm     94% 0in /  0.0mm 0 W/m2
03:34 42.3 °F /  5.7 °C 40.6 °F /  4.8 °C 30.2in /  1022.0hPa Calm     94% 0in /  0.0mm 0 W/m2
03:39 42.3 °F /  5.7 °C 40.6 °F /  4.8 °C 30.2in /  1022.0hPa Calm     94% 0in /  0.0mm 0 W/m2
03:44 42.3 °F /  5.7 °C 40.6 °F /  4.8 °C 30.2in /  1021.7hPa Calm     94% 0in /  0.0mm 0 W/m2
03:49 42.3 °F /  5.7 °C 40.6 °F /  4.8 °C 30.2in /  1021.7hPa Calm     94% 0in /  0.0mm 0 W/m2
03:54 42.1 °F /  5.6 °C 40.5 °F /  4.7 °C 30.2in /  1021.7hPa Calm     94% 0in /  0.0mm 0 W/m2
03:59 42.1 °F /  5.6 °C 40.5 °F /  4.7 °C 30.2in /  1021.7hPa Calm     94% 0in /  0.0mm 0 W/m2
04:04 41.9 °F /  5.5 °C 40.3 °F /  4.6 °C 30.2in /  1021.7hPa Calm     94% 0in /  0.0mm 0 W/m2
04:09 42.1 °F /  5.6 °C 40.5 °F /  4.7 °C 30.2in /  1021.3hPa Calm     94% 0in /  0.0mm 0 W/m2
04:14 42.1 °F /  5.6 °C 40.8 °F /  4.9 °C 30.2in /  1021.7hPa Calm     95% 0in /  0.0mm 0 W/m2
04:19 42.1 °F /  5.6 °C 40.8 °F /  4.9 °C 30.2in /  1021.7hPa Calm     95% 0in /  0.0mm 0 W/m2
04:24 42.1 °F /  5.6 °C 40.8 °F /  4.9 °C 30.2in /  1021.3hPa Calm     95% 0in /  0.0mm 0 W/m2
04:29 42.1 °F /  5.6 °C 40.8 °F /  4.9 °C 30.2in /  1021.3hPa Calm     95% 0in /  0.0mm 0 W/m2
04:34 41.9 °F /  5.5 °C 40.6 °F /  4.8 °C 30.2in /  1021.3hPa Calm     95% 0in /  0.0mm 0 W/m2
04:39 41.7 °F /  5.4 °C 40.1 °F /  4.5 °C 30.2in /  1021.3hPa Calm     94% 0in /  0.0mm 0 W/m2
04:44 41.7 °F /  5.4 °C 40.1 °F /  4.5 °C 30.2in /  1021.3hPa Calm     94% 0in /  0.0mm 0 W/m2
04:49 41.5 °F /  5.3 °C 39.9 °F /  4.4 °C 30.2in /  1021.0hPa Calm     94% 0in /  0.0mm 0 W/m2
04:54 41.5 °F /  5.3 °C 40.3 °F /  4.6 °C 30.2in /  1021.0hPa Calm     95% 0in /  0.0mm 0 W/m2
04:59 41.5 °F /  5.3 °C 40.3 °F /  4.6 °C 30.2in /  1021.0hPa Calm     95% 0in /  0.0mm 0 W/m2
05:04 41.5 °F /  5.3 °C 40.3 °F /  4.6 °C 30.2in /  1021.0hPa Calm     95% 0in /  0.0mm 0 W/m2
05:09 41.5 °F /  5.3 °C 40.3 °F /  4.6 °C 30.2in /  1021.0hPa Calm     95% 0in /  0.0mm 0 W/m2
05:14 41.5 °F /  5.3 °C 40.3 °F /  4.6 °C 30.2in /  1021.0hPa Calm     95% 0in /  0.0mm 0 W/m2
05:19 41.5 °F /  5.3 °C 40.3 °F /  4.6 °C 30.2in /  1021.0hPa Calm     95% 0in /  0.0mm 0 W/m2
05:24 41.5 °F /  5.3 °C 40.3 °F /  4.6 °C 30.2in /  1021.0hPa Calm     95% 0in /  0.0mm 0 W/m2
05:29 41.5 °F /  5.3 °C 40.3 °F /  4.6 °C 30.2in /  1021.0hPa Calm     95% 0in /  0.0mm 0 W/m2
05:34 41.4 °F /  5.2 °C 40.1 °F /  4.5 °C 30.1in /  1020.7hPa Calm     95% 0in /  0.0mm 0 W/m2
05:39 41.4 °F /  5.2 °C 40.1 °F /  4.5 °C 30.1in /  1020.7hPa Calm     95% 0in /  0.0mm 0 W/m2
05:45 41.4 °F /  5.2 °C 40.1 °F /  4.5 °C 30.1in /  1020.7hPa Calm     95% 0in /  0.0mm 0 W/m2
05:50 41.4 °F /  5.2 °C 40.1 °F /  4.5 °C 30.1in /  1020.7hPa Calm     95% 0in /  0.0mm 0 W/m2
05:55 41.2 °F /  5.1 °C 39.9 °F /  4.4 °C 30.1in /  1020.7hPa Calm     95% 0in /  0.0mm 0 W/m2
06:00 41.2 °F /  5.1 °C 39.9 °F /  4.4 °C 30.1in /  1020.7hPa Calm     95% 0in /  0.0mm 0 W/m2
06:05 41.2 °F /  5.1 °C 39.9 °F /  4.4 °C 30.1in /  1020.7hPa Calm     95% 0in /  0.0mm 0 W/m2
06:10 41 °F /  5 °C 39.7 °F /  4.3 °C 30.1in /  1020.7hPa Calm     95% 0in /  0.0mm 0 W/m2
06:15 40.8 °F /  4.9 °C 39.6 °F /  4.2 °C 30.1in /  1020.7hPa Calm     95% 0in /  0.0mm 0 W/m2
06:20 40.8 °F /  4.9 °C 39.6 °F /  4.2 °C 30.1in /  1020.7hPa Calm     95% 0in /  0.0mm 0 W/m2
06:25 40.6 °F /  4.8 °C 39.4 °F /  4.1 °C 30.1in /  1020.7hPa Calm     95% 0in /  0.0mm 0 W/m2
06:30 40.6 °F /  4.8 °C 39.4 °F /  4.1 °C 30.1in /  1020.7hPa Calm     95% 0in /  0.0mm 0 W/m2
06:35 40.6 °F /  4.8 °C 39.4 °F /  4.1 °C 30.1in /  1020.7hPa Calm     95% 0in /  0.0mm 0 W/m2
06:40 40.5 °F /  4.7 °C 39.2 °F /  4 °C 30.1in /  1020.7hPa Calm     95% 0in /  0.0mm 0 W/m2
06:45 40.5 °F /  4.7 °C 39.2 °F /  4 °C 30.1in /  1020.7hPa Calm     95% 0in /  0.0mm 0 W/m2
06:50 40.3 °F /  4.6 °C 39 °F /  3.9 °C 30.1in /  1020.7hPa Calm     95% 0in /  0.0mm 0 W/m2
06:55 40.3 °F /  4.6 °C 39 °F /  3.9 °C 30.1in /  1020.7hPa Calm     95% 0in /  0.0mm 0 W/m2
07:00 40.3 °F /  4.6 °C 39 °F /  3.9 °C 30.1in /  1020.7hPa Calm     95% 0in /  0.0mm 0 W/m2
07:05 40.3 °F /  4.6 °C 39 °F /  3.9 °C 30.1in /  1020.7hPa Calm     95% 0in /  0.0mm 0 W/m2
07:10 40.1 °F /  4.5 °C 38.8 °F /  3.8 °C 30.1in /  1020.7hPa Calm     95% 0in /  0.0mm 0 W/m2
07:15 40.1 °F /  4.5 °C 38.8 °F /  3.8 °C 30.1in /  1020.7hPa Calm     95% 0in /  0.0mm 0 W/m2
07:20 40.1 °F /  4.5 °C 38.8 °F /  3.8 °C 30.1in /  1020.7hPa Calm     95% 0in /  0.0mm 0 W/m2
07:25 39.9 °F /  4.4 °C 38.7 °F /  3.7 °C 30.1in /  1020.7hPa Calm     95% 0in /  0.0mm 0 W/m2
07:30 39.9 °F /  4.4 °C 38.7 °F /  3.7 °C 30.1in /  1020.7hPa Calm     95% 0in /  0.0mm 0 W/m2
07:35 39.9 °F /  4.4 °C 38.8 °F /  3.8 °C 30.1in /  1020.7hPa Calm     96% 0in /  0.0mm 0 W/m2
07:40 40.1 °F /  4.5 °C 39 °F /  3.9 °C 30.1in /  1020.3hPa Calm     96% 0in /  0.0mm 0 W/m2
07:45 40.3 °F /  4.6 °C 39.2 °F /  4 °C 30.1in /  1020.7hPa Calm     96% 0in /  0.0mm 5 W/m2
07:50 40.5 °F /  4.7 °C 39.4 °F /  4.1 °C 30.1in /  1020.7hPa Calm     96% 0in /  0.0mm 7 W/m2
07:55 40.5 °F /  4.7 °C 39.4 °F /  4.1 °C 30.1in /  1020.3hPa Calm     96% 0in /  0.0mm 11 W/m2
08:01 40.3 °F /  4.6 °C 39.2 °F /  4 °C 30.1in /  1020.3hPa Calm     96% 0in /  0.0mm 12 W/m2
08:06 40.3 °F /  4.6 °C 39.2 °F /  4 °C 30.1in /  1020.3hPa Calm     96% 0in /  0.0mm 16 W/m2
08:11 40.3 °F /  4.6 °C 39.2 °F /  4 °C 30.1in /  1020.3hPa Calm     96% 0in /  0.0mm 18 W/m2
08:16 40.3 °F /  4.6 °C 39.2 °F /  4 °C 30.1in /  1020.3hPa Calm     96% 0in /  0.0mm 19 W/m2
08:21 40.3 °F /  4.6 °C 39.2 °F /  4 °C 30.1in /  1020.3hPa Calm     96% 0in /  0.0mm 21 W/m2
08:26 40.3 °F /  4.6 °C 39.2 °F /  4 °C 30.1in /  1020.3hPa Calm     96% 0in /  0.0mm 25 W/m2
08:31 40.5 °F /  4.7 °C 39.4 °F /  4.1 °C 30.1in /  1020.3hPa Calm     96% 0in /  0.0mm 26 W/m2
08:36 40.6 °F /  4.8 °C 39.6 °F /  4.2 °C 30.1in /  1020.3hPa Calm     96% 0in /  0.0mm 28 W/m2
08:41 40.6 °F /  4.8 °C 39.6 °F /  4.2 °C 30.1in /  1020.3hPa Calm     96% 0in /  0.0mm 30 W/m2
08:46 40.8 °F /  4.9 °C 39.7 °F /  4.3 °C 30.1in /  1020.3hPa Calm     96% 0in /  0.0mm 30 W/m2
08:51 41 °F /  5 °C 39.9 °F /  4.4 °C 30.1in /  1020.3hPa Calm     96% 0in /  0.0mm 32 W/m2
08:56 41.2 °F /  5.1 °C 40.1 °F /  4.5 °C 30.1in /  1020.3hPa Calm     96% 0in /  0.0mm 33 W/m2
09:01 41.4 °F /  5.2 °C 40.3 °F /  4.6 °C 30.1in /  1020.3hPa Calm     96% 0in /  0.0mm 35 W/m2
09:06 41.5 °F /  5.3 °C 40.5 °F /  4.7 °C 30.1in /  1020.3hPa Calm     96% 0in /  0.0mm 35 W/m2
09:11 41.7 °F /  5.4 °C 40.6 °F /  4.8 °C 30.1in /  1020.3hPa Calm     96% 0in /  0.0mm 42 W/m2
09:16 42.1 °F /  5.6 °C 41 °F /  5 °C 30.1in /  1020.3hPa Calm     96% 0in /  0.0mm 188 W/m2
09:21 42.4 °F /  5.8 °C 41.4 °F /  5.2 °C 30.1in /  1020.3hPa Calm     96% 0in /  0.0mm 193 W/m2
09:26 43.3 °F /  6.3 °C 42.6 °F /  5.9 °C 30.1in /  1020.3hPa Calm     97% 0in /  0.0mm 211 W/m2
09:31 43.7 °F /  6.5 °C 43 °F /  6.1 °C 30.1in /  1020.3hPa Calm     97% 0in /  0.0mm 218 W/m2
09:37 44.1 °F /  6.7 °C 43.3 °F /  6.3 °C 30.1in /  1020.3hPa Calm   2mph /  3.2km/h 97% 0in /  0.0mm 221 W/m2
09:42 44.6 °F /  7 °C 43.9 °F /  6.6 °C 30.1in /  1020.3hPa NNE 0.9mph /  1.4km/h 2mph /  3.2km/h 97% 0in /  0.0mm 243 W/m2
09:47 45 °F /  7.2 °C 44.2 °F /  6.8 °C 30.1in /  1020.3hPa East 0.9mph /  1.4km/h 1mph /  1.6km/h 97% 0in /  0.0mm 250 W/m2
09:52 45.3 °F /  7.4 °C 44.6 °F /  7 °C 30.1in /  1020.3hPa ESE 0.9mph /  1.4km/h 2mph /  3.2km/h 97% 0in /  0.0mm 281 W/m2
09:57 45.9 °F /  7.7 °C 45.1 °F /  7.3 °C 30.1in /  1020.3hPa Calm     97% 0in /  0.0mm 301 W/m2
10:02 46.2 °F /  7.9 °C 45.5 °F /  7.5 °C 30.1in /  1020.3hPa ENE 0.9mph /  1.4km/h 3mph /  4.8km/h 97% 0in /  0.0mm 308 W/m2
10:07 47.1 °F /  8.4 °C 46.4 °F /  8 °C 30.1in /  1020.3hPa Calm   1mph /  1.6km/h 97% 0in /  0.0mm 315 W/m2
10:12 48 °F /  8.9 °C 46.9 °F /  8.3 °C 30.1in /  1020.3hPa ENE 2mph /  3.2km/h 2mph /  3.2km/h 96% 0in /  0.0mm 327 W/m2
10:17 48.7 °F /  9.3 °C 47.3 °F /  8.5 °C 30.1in /  1020.3hPa ESE 2.9mph /  4.7km/h 3mph /  4.8km/h 95% 0in /  0.0mm 283 W/m2
10:22 49.5 °F /  9.7 °C 47.3 °F /  8.5 °C 30.1in /  1020.3hPa SSE 2mph /  3.2km/h 2mph /  3.2km/h 92% 0in /  0.0mm 355 W/m2
10:27 49.8 °F /  9.9 °C 46.8 °F /  8.2 °C 30.1in /  1020.3hPa Calm   2mph /  3.2km/h 89% 0in /  0.0mm 373 W/m2
10:32 50.5 °F /  10.3 °C 47.1 °F /  8.4 °C 30.1in /  1020.0hPa ESE 2mph /  3.2km/h 3mph /  4.8km/h 88% 0in /  0.0mm 380 W/m2
10:37 51.1 °F /  10.6 °C 47.1 °F /  8.4 °C 30.1in /  1020.0hPa NNE 2mph /  3.2km/h 3mph /  4.8km/h 86% 0in /  0.0mm 383 W/m2
10:42 51.4 °F /  10.8 °C 47.1 °F /  8.4 °C 30.1in /  1020.0hPa NE 0.9mph /  1.4km/h 1mph /  1.6km/h 85% 0in /  0.0mm 369 W/m2
10:47 51.8 °F /  11 °C 47.1 °F /  8.4 °C 30.1in /  1020.0hPa ESE 6mph /  9.7km/h 6mph /  9.7km/h 84% 0in /  0.0mm 408 W/m2
10:52 52.2 °F /  11.2 °C 46.8 °F /  8.2 °C 30.1in /  1020.0hPa East 2mph /  3.2km/h 3mph /  4.8km/h 82% 0in /  0.0mm 431 W/m2
10:57 52.3 °F /  11.3 °C 46.9 °F /  8.3 °C 30.1in /  1019.6hPa ENE 2.9mph /  4.7km/h 6mph /  9.7km/h 82% 0in /  0.0mm 462 W/m2
11:02 52.9 °F /  11.6 °C 47.5 °F /  8.6 °C 30.1in /  1019.6hPa NE 2mph /  3.2km/h 3mph /  4.8km/h 82% 0in /  0.0mm 452 W/m2
11:07 53.2 °F /  11.8 °C 47.3 °F /  8.5 °C 30.1in /  1019.6hPa NE 2mph /  3.2km/h 4mph /  6.4km/h 80% 0in /  0.0mm 461 W/m2
11:12 53.4 °F /  11.9 °C 47.5 °F /  8.6 °C 30.1in /  1019.6hPa East 2mph /  3.2km/h 3mph /  4.8km/h 80% 0in /  0.0mm 468 W/m2
11:17 54 °F /  12.2 °C 48 °F /  8.9 °C 30.1in /  1019.6hPa East 0.9mph /  1.4km/h 3mph /  4.8km/h 80% 0in /  0.0mm 490 W/m2
11:22 54.5 °F /  12.5 °C 48.2 °F /  9 °C 30.1in /  1019.6hPa East 2mph /  3.2km/h 3mph /  4.8km/h 79% 0in /  0.0mm 503 W/m2
11:27 55.2 °F /  12.9 °C 48.6 °F /  9.2 °C 30.1in /  1019.3hPa East 2.9mph /  4.7km/h 4mph /  6.4km/h 78% 0in /  0.0mm 503 W/m2
11:32 55.9 °F /  13.3 °C 48.9 °F /  9.4 °C 30.1in /  1019.3hPa ESE 2.9mph /  4.7km/h 3mph /  4.8km/h 77% 0in /  0.0mm 468 W/m2
11:37 56.5 °F /  13.6 °C 48.7 °F /  9.3 °C 30.1in /  1019.3hPa East 0.9mph /  1.4km/h 4mph /  6.4km/h 75% 0in /  0.0mm 464 W/m2
11:42 56.8 °F /  13.8 °C 48.9 °F /  9.4 °C 30.1in /  1019.0hPa Calm   3mph /  4.8km/h 75% 0in /  0.0mm 478 W/m2
11:47 57.4 °F /  14.1 °C 48.7 °F /  9.3 °C 30.1in /  1019.0hPa ESE 4mph /  6.4km/h 5mph /  8km/h 73% 0in /  0.0mm 531 W/m2
11:52 57.7 °F /  14.3 °C 49.1 °F /  9.5 °C 30.1in /  1019.0hPa Calm   4mph /  6.4km/h 73% 0in /  0.0mm 538 W/m2
11:57 58.3 °F /  14.6 °C 49.3 °F /  9.6 °C 30.1in /  1019.0hPa East 0.9mph /  1.4km/h 6mph /  9.7km/h 72% 0in /  0.0mm 515 W/m2
12:02 58.6 °F /  14.8 °C 49.3 °F /  9.6 °C 30.1in /  1019.0hPa ENE 0.9mph /  1.4km/h 3mph /  4.8km/h 71% 0in /  0.0mm 541 W/m2
12:07 59.2 °F /  15.1 °C 49.8 °F /  9.9 °C 30.1in /  1019.0hPa ENE 2.9mph /  4.7km/h 6mph /  9.7km/h 71% 0in /  0.0mm 545 W/m2
12:12 59.4 °F /  15.2 °C 49.1 °F /  9.5 °C 30.1in /  1018.6hPa NE 4mph /  6.4km/h 4mph /  6.4km/h 69% 0in /  0.0mm 445 W/m2
12:17 59.5 °F /  15.3 °C 49.3 °F /  9.6 °C 30.1in /  1018.6hPa Calm   5mph /  8km/h 69% 0in /  0.0mm 545 W/m2
12:22 59.9 °F /  15.5 °C 49.6 °F /  9.8 °C 30.1in /  1018.6hPa SSE 0.9mph /  1.4km/h 3mph /  4.8km/h 69% 0in /  0.0mm 483 W/m2
12:27 60.3 °F /  15.7 °C 50 °F /  10 °C 30.1in /  1018.6hPa ENE 2mph /  3.2km/h 6mph /  9.7km/h 69% 0in /  0.0mm 485 W/m2
12:32 60.4 °F /  15.8 °C 50.2 °F /  10.1 °C 30.1in /  1018.3hPa NE 0.9mph /  1.4km/h 4mph /  6.4km/h 69% 0in /  0.0mm 338 W/m2
12:37 60.6 °F /  15.9 °C 50 °F /  10 °C 30.1in /  1018.3hPa North 0.9mph /  1.4km/h 6mph /  9.7km/h 68% 0in /  0.0mm 580 W/m2
12:42 61.2 °F /  16.2 °C 50.5 °F /  10.3 °C 30.1in /  1018.3hPa WNW 2mph /  3.2km/h 3mph /  4.8km/h 68% 0in /  0.0mm 584 W/m2
12:47 61.3 °F /  16.3 °C 50.4 °F /  10.2 °C 30.1in /  1018.0hPa WNW 2mph /  3.2km/h 5mph /  8km/h 67% 0in /  0.0mm 601 W/m2
12:52 61.5 °F /  16.4 °C 50 °F /  10 °C 30.1in /  1018.3hPa Calm   4mph /  6.4km/h 66% 0in /  0.0mm 610 W/m2
12:57 62.1 °F /  16.7 °C 50.5 °F /  10.3 °C 30.1in /  1018.3hPa SW 2mph /  3.2km/h 3mph /  4.8km/h 66% 0in /  0.0mm 622 W/m2
13:02 62.4 °F /  16.9 °C 50.5 °F /  10.3 °C 30.1in /  1018.3hPa ENE 2mph /  3.2km/h 4mph /  6.4km/h 65% 0in /  0.0mm 605 W/m2
13:07 63 °F /  17.2 °C 48.9 °F /  9.4 °C 30.1in /  1018.3hPa NNE 0.9mph /  1.4km/h 4mph /  6.4km/h 60% 0in /  0.0mm 547 W/m2
13:12 63.3 °F /  17.4 °C 47.8 °F /  8.8 °C 30.1in /  1018.0hPa NNW 2mph /  3.2km/h 10mph /  16.1km/h 57% 0in /  0.0mm 584 W/m2
13:17 63.3 °F /  17.4 °C 47.3 °F /  8.5 °C 30.1in /  1018.0hPa NNW 2mph /  3.2km/h 11mph /  17.7km/h 56% 0in /  0.0mm 587 W/m2
13:22 63.7 °F /  17.6 °C 48.2 °F /  9 °C 30.1in /  1018.0hPa East 6.9mph /  11.1km/h 7mph /  11.3km/h 57% 0in /  0.0mm 652 W/m2
13:27 63.5 °F /  17.5 °C 47.5 °F /  8.6 °C 30.1in /  1018.0hPa Calm   6mph /  9.7km/h 56% 0in /  0.0mm 628 W/m2
13:32 63.7 °F /  17.6 °C 47.3 °F /  8.5 °C 30.1in /  1018.0hPa WNW 4mph /  6.4km/h 4mph /  6.4km/h 55% 0in /  0.0mm 684 W/m2
13:37 63.9 °F /  17.7 °C 46.9 °F /  8.3 °C 30.1in /  1018.0hPa NNW 0.9mph /  1.4km/h 7mph /  11.3km/h 54% 0in /  0.0mm 698 W/m2
13:42 63.9 °F /  17.7 °C 46.9 °F /  8.3 °C 30.1in /  1017.6hPa Calm   3mph /  4.8km/h 54% 0in /  0.0mm 573 W/m2
13:47 64.2 °F /  17.9 °C 47.3 °F /  8.5 °C 30.1in /  1017.6hPa NNE 2mph /  3.2km/h 6mph /  9.7km/h 54% 0in /  0.0mm 643 W/m2
13:52 64.2 °F /  17.9 °C 46.8 °F /  8.2 °C 30.1in /  1017.6hPa SW 2mph /  3.2km/h 4mph /  6.4km/h 53% 0in /  0.0mm 533 W/m2
13:57 63.9 °F /  17.7 °C 46.9 °F /  8.3 °C 30in /  1017.3hPa SW 2.9mph /  4.7km/h 6mph /  9.7km/h 54% 0in /  0.0mm 255 W/m2
14:02 63.9 °F /  17.7 °C 46.9 °F /  8.3 °C 30in /  1017.3hPa SSE 2mph /  3.2km/h 3mph /  4.8km/h 54% 0in /  0.0mm 220 W/m2
14:07 63.7 °F /  17.6 °C 46.8 °F /  8.2 °C 30in /  1017.3hPa NNW 2mph /  3.2km/h 4mph /  6.4km/h 54% 0in /  0.0mm 218 W/m2
14:12 63.7 °F /  17.6 °C 46.2 °F /  7.9 °C 30in /  1017.3hPa NW 4mph /  6.4km/h 5mph /  8km/h 53% 0in /  0.0mm 209 W/m2
14:17 63.5 °F /  17.5 °C 46.6 °F /  8.1 °C 30in /  1017.3hPa ENE 2mph /  3.2km/h 4mph /  6.4km/h 54% 0in /  0.0mm 206 W/m2
14:22 63.5 °F /  17.5 °C 47.1 °F /  8.4 °C 30in /  1017.3hPa NW 2mph /  3.2km/h 5mph /  8km/h 55% 0in /  0.0mm 186 W/m2
14:27 63.7 °F /  17.6 °C 47.7 °F /  8.7 °C 30in /  1017.3hPa West 2mph /  3.2km/h 7mph /  11.3km/h 56% 0in /  0.0mm 179 W/m2
14:32 63.7 °F /  17.6 °C 47.3 °F /  8.5 °C 30in /  1017.3hPa Calm   9mph /  14.5km/h 55% 0in /  0.0mm 178 W/m2
14:37 63.9 °F /  17.7 °C 47.8 °F /  8.8 °C 30in /  1017.3hPa NW 4mph /  6.4km/h 5mph /  8km/h 56% 0in /  0.0mm 185 W/m2
14:42 64 °F /  17.8 °C 48.6 °F /  9.2 °C 30in /  1016.9hPa WNW 2.9mph /  4.7km/h 4mph /  6.4km/h 57% 0in /  0.0mm 206 W/m2
14:47 64.4 °F /  18 °C 47.8 °F /  8.8 °C 30in /  1016.9hPa West 4mph /  6.4km/h 7mph /  11.3km/h 55% 0in /  0.0mm 225 W/m2
14:52 64.4 °F /  18 °C 47.8 °F /  8.8 °C 30in /  1016.9hPa Calm   4mph /  6.4km/h 55% 0in /  0.0mm 262 W/m2
14:57 64.6 °F /  18.1 °C 48 °F /  8.9 °C 30in /  1016.9hPa SW 0.9mph /  1.4km/h 6mph /  9.7km/h 55% 0in /  0.0mm 327 W/m2
15:02 64.8 °F /  18.2 °C 48.7 °F /  9.3 °C 30in /  1016.9hPa West 6.9mph /  11.1km/h 7mph /  11.3km/h 56% 0in /  0.0mm 362 W/m2
15:07 64.6 °F /  18.1 °C 46 °F /  7.8 °C 30in /  1016.9hPa NW 2.9mph /  4.7km/h 7mph /  11.3km/h 51% 0in /  0.0mm 427 W/m2
15:12 64.2 °F /  17.9 °C 47.3 °F /  8.5 °C 30in /  1016.9hPa WSW 2mph /  3.2km/h 6mph /  9.7km/h 54% 0in /  0.0mm 250 W/m2
15:17 64.4 °F /  18 °C 48.4 °F /  9.1 °C 30in /  1016.6hPa SE 2mph /  3.2km/h 4mph /  6.4km/h 56% 0in /  0.0mm 374 W/m2
15:22 64.6 °F /  18.1 °C 47.1 °F /  8.4 °C 30in /  1016.6hPa Calm   6mph /  9.7km/h 53% 0in /  0.0mm 353 W/m2
15:27 64.6 °F /  18.1 °C 47.5 °F /  8.6 °C 30in /  1016.6hPa WNW 0.9mph /  1.4km/h 4mph /  6.4km/h 54% 0in /  0.0mm 278 W/m2
15:32 64.6 °F /  18.1 °C 47.1 °F /  8.4 °C 30in /  1016.6hPa ESE 0.9mph /  1.4km/h 3mph /  4.8km/h 53% 0in /  0.0mm 237 W/m2
15:37 64.6 °F /  18.1 °C 47.1 °F /  8.4 °C 30in /  1016.6hPa West 2mph /  3.2km/h 3mph /  4.8km/h 53% 0in /  0.0mm 204 W/m2
15:42 64.2 °F /  17.9 °C 47.7 °F /  8.7 °C 30in /  1016.6hPa Calm   4mph /  6.4km/h 55% 0in /  0.0mm 207 W/m2
15:47 64 °F /  17.8 °C 47.1 °F /  8.4 °C 30in /  1016.6hPa NW 0.9mph /  1.4km/h 8mph /  12.9km/h 54% 0in /  0.0mm 207 W/m2
15:52 64 °F /  17.8 °C 46.6 °F /  8.1 °C 30in /  1016.3hPa Calm   4mph /  6.4km/h 53% 0in /  0.0mm 227 W/m2
15:57 64 °F /  17.8 °C 47.1 °F /  8.4 °C 30in /  1016.3hPa Calm   2mph /  3.2km/h 54% 0in /  0.0mm 301 W/m2
16:02 64.2 °F /  17.9 °C 47.7 °F /  8.7 °C 30in /  1016.3hPa Calm   2mph /  3.2km/h 55% 0in /  0.0mm 257 W/m2
16:07 64.6 °F /  18.1 °C 49.5 °F /  9.7 °C 30in /  1016.3hPa SE 0.9mph /  1.4km/h 2mph /  3.2km/h 58% 0in /  0.0mm 192 W/m2
16:12 64.4 °F /  18 °C 48.4 °F /  9.1 °C 30in /  1016.3hPa East 0.9mph /  1.4km/h 3mph /  4.8km/h 56% 0in /  0.0mm 200 W/m2
16:17 64.2 °F /  17.9 °C 48.2 °F /  9 °C 30in /  1016.3hPa ENE 0.9mph /  1.4km/h 4mph /  6.4km/h 56% 0in /  0.0mm 204 W/m2
16:22 64.2 °F /  17.9 °C 48.2 °F /  9 °C 30in /  1016.3hPa NW 0.9mph /  1.4km/h 2mph /  3.2km/h 56% 0in /  0.0mm 221 W/m2
16:27 64.2 °F /  17.9 °C 48.2 °F /  9 °C 30in /  1016.3hPa Calm   1mph /  1.6km/h 56% 0in /  0.0mm 272 W/m2
16:32 64.4 °F /  18 °C 48.4 °F /  9.1 °C 30in /  1015.9hPa NE 2mph /  3.2km/h 2mph /  3.2km/h 56% 0in /  0.0mm 255 W/m2
16:37 64.6 °F /  18.1 °C 48.9 °F /  9.4 °C 30in /  1016.3hPa Calm   2mph /  3.2km/h 57% 0in /  0.0mm 250 W/m2
16:42 64.6 °F /  18.1 °C 48.6 °F /  9.2 °C 30in /  1016.3hPa West 0.9mph /  1.4km/h 2mph /  3.2km/h 56% 0in /  0.0mm 197 W/m2
16:47 64.6 °F /  18.1 °C 48 °F /  8.9 °C 30in /  1015.9hPa Calm   2mph /  3.2km/h 55% 0in /  0.0mm 163 W/m2
16:52 64.4 °F /  18 °C 47.8 °F /  8.8 °C 30in /  1015.9hPa WNW 2.9mph /  4.7km/h 3mph /  4.8km/h 55% 0in /  0.0mm 149 W/m2
16:57 64.2 °F /  17.9 °C 47.7 °F /  8.7 °C 30in /  1015.9hPa NW 0.9mph /  1.4km/h 5mph /  8km/h 55% 0in /  0.0mm 141 W/m2
17:02 64 °F /  17.8 °C 47.5 °F /  8.6 °C 30in /  1015.9hPa NNW 0.9mph /  1.4km/h 1mph /  1.6km/h 55% 0in /  0.0mm 139 W/m2
17:07 64 °F /  17.8 °C 48 °F /  8.9 °C 30in /  1015.9hPa NNE 0.9mph /  1.4km/h 5mph /  8km/h 56% 0in /  0.0mm 146 W/m2
17:12 64 °F /  17.8 °C 48 °F /  8.9 °C 30in /  1015.9hPa West 0.9mph /  1.4km/h 2mph /  3.2km/h 56% 0in /  0.0mm 142 W/m2
17:17 63.9 °F /  17.7 °C 47.8 °F /  8.8 °C 30in /  1015.9hPa ESE 0.9mph /  1.4km/h 4mph /  6.4km/h 56% 0in /  0.0mm 127 W/m2
17:22 63.9 °F /  17.7 °C 49.3 °F /  9.6 °C 30in /  1015.6hPa WNW 2mph /  3.2km/h 2mph /  3.2km/h 59% 0in /  0.0mm 113 W/m2
17:27 63.7 °F /  17.6 °C 48.6 °F /  9.2 °C 30in /  1015.6hPa WNW 0.9mph /  1.4km/h 4mph /  6.4km/h 58% 0in /  0.0mm 100 W/m2
17:32 63.3 °F /  17.4 °C 48.4 °F /  9.1 °C 30in /  1015.6hPa West 0.9mph /  1.4km/h 4mph /  6.4km/h 58% 0in /  0.0mm 91 W/m2
17:37 63.1 °F /  17.3 °C 49.5 °F /  9.7 °C 30in /  1015.6hPa Calm   1mph /  1.6km/h 61% 0in /  0.0mm 83 W/m2
17:42 63.1 °F /  17.3 °C 50.4 °F /  10.2 °C 30in /  1015.6hPa Calm   4mph /  6.4km/h 63% 0in /  0.0mm 79 W/m2
17:47 62.8 °F /  17.1 °C 50.4 °F /  10.2 °C 30in /  1015.6hPa Calm   1mph /  1.6km/h 64% 0in /  0.0mm 72 W/m2
17:52 62.4 °F /  16.9 °C 50.9 °F /  10.5 °C 30in /  1015.6hPa Calm     66% 0in /  0.0mm 65 W/m2
17:57 62.2 °F /  16.8 °C 50.4 °F /  10.2 °C 30in /  1015.6hPa Calm   1mph /  1.6km/h 65% 0in /  0.0mm 58 W/m2
18:02 61.9 °F /  16.6 °C 50.4 °F /  10.2 °C 30in /  1015.6hPa Calm     66% 0in /  0.0mm 54 W/m2
18:07 61.7 °F /  16.5 °C 50.7 °F /  10.4 °C 30in /  1015.6hPa West 0.9mph /  1.4km/h 2mph /  3.2km/h 67% 0in /  0.0mm 53 W/m2
18:12 61.3 °F /  16.3 °C 51.1 °F /  10.6 °C 30in /  1015.6hPa Calm     69% 0in /  0.0mm 53 W/m2
18:17 61.2 °F /  16.2 °C 51.3 °F /  10.7 °C 30in /  1015.6hPa Calm     70% 0in /  0.0mm 51 W/m2
18:22 61 °F /  16.1 °C 51.4 °F /  10.8 °C 30in /  1015.6hPa Calm     71% 0in /  0.0mm 47 W/m2
18:27 60.4 °F /  15.8 °C 51.1 °F /  10.6 °C 30in /  1015.6hPa Calm     71% 0in /  0.0mm 39 W/m2
18:32 60.3 °F /  15.7 °C 50.9 °F /  10.5 °C 30in /  1015.6hPa Calm   1mph /  1.6km/h 71% 0in /  0.0mm 33 W/m2
18:37 59.9 °F /  15.5 °C 50.9 °F /  10.5 °C 30in /  1015.6hPa Calm   1mph /  1.6km/h 72% 0in /  0.0mm 28 W/m2
18:42 59.7 °F /  15.4 °C 51.1 °F /  10.6 °C 30in /  1015.6hPa Calm   1mph /  1.6km/h 73% 0in /  0.0mm 23 W/m2
18:47 59.4 °F /  15.2 °C 51.1 °F /  10.6 °C 30in /  1015.6hPa Calm     74% 0in /  0.0mm 18 W/m2
18:52 59.2 °F /  15.1 °C 51.3 °F /  10.7 °C 30in /  1015.6hPa Calm     75% 0in /  0.0mm 14 W/m2
18:58 58.8 °F /  14.9 °C 50.9 °F /  10.5 °C 30in /  1015.6hPa Calm     75% 0in /  0.0mm 11 W/m2
19:03 58.5 °F /  14.7 °C 50.9 °F /  10.5 °C 30in /  1015.6hPa Calm     76% 0in /  0.0mm 7 W/m2
19:08 58.3 °F /  14.6 °C 50.7 °F /  10.4 °C 30in /  1015.6hPa West 0.9mph /  1.4km/h 1mph /  1.6km/h 76% 0in /  0.0mm 5 W/m2
19:13 57.9 °F /  14.4 °C 50.7 °F /  10.4 °C 30in /  1015.6hPa Calm     77% 0in /  0.0mm 0 W/m2
19:18 57.6 °F /  14.2 °C 50.4 °F /  10.2 °C 30in /  1015.6hPa West 0.9mph /  1.4km/h 1mph /  1.6km/h 77% 0in /  0.0mm 0 W/m2
19:23 57.4 °F /  14.1 °C 50.5 °F /  10.3 °C 30in /  1015.6hPa Calm   1mph /  1.6km/h 78% 0in /  0.0mm 0 W/m2
19:28 57 °F /  13.9 °C 50.2 °F /  10.1 °C 30in /  1015.6hPa Calm     78% 0in /  0.0mm 0 W/m2
19:33 56.8 °F /  13.8 °C 50.4 °F /  10.2 °C 30in /  1015.6hPa Calm     79% 0in /  0.0mm 0 W/m2
19:38 56.7 °F /  13.7 °C 50.5 °F /  10.3 °C 30in /  1015.6hPa Calm     80% 0in /  0.0mm 0 W/m2
19:43 56.3 °F /  13.5 °C 50.2 °F /  10.1 °C 30in /  1015.6hPa Calm   1mph /  1.6km/h 80% 0in /  0.0mm 0 W/m2
19:48 56.1 °F /  13.4 °C 50 °F /  10 °C 30in /  1015.6hPa Calm     80% 0in /  0.0mm 0 W/m2
19:53 55.9 °F /  13.3 °C 50.2 °F /  10.1 °C 30in /  1015.6hPa Calm   1mph /  1.6km/h 81% 0in /  0.0mm 0 W/m2
19:58 55.8 °F /  13.2 °C 50 °F /  10 °C 30in /  1015.6hPa Calm   2mph /  3.2km/h 81% 0in /  0.0mm 0 W/m2
20:03 55.6 °F /  13.1 °C 50.2 °F /  10.1 °C 30in /  1015.6hPa Calm     82% 0in /  0.0mm 0 W/m2
20:08 55.6 °F /  13.1 °C 50.2 °F /  10.1 °C 30in /  1015.6hPa Calm   2mph /  3.2km/h 82% 0in /  0.0mm 0 W/m2
20:13 55.2 °F /  12.9 °C 49.8 °F /  9.9 °C 30in /  1015.6hPa Calm     82% 0in /  0.0mm 0 W/m2
20:18 55.2 °F /  12.9 °C 50.2 °F /  10.1 °C 30in /  1015.6hPa Calm     83% 0in /  0.0mm 0 W/m2
20:23 55 °F /  12.8 °C 50 °F /  10 °C 30in /  1015.6hPa Calm     83% 0in /  0.0mm 0 W/m2
20:28 55 °F /  12.8 °C 50 °F /  10 °C 30in /  1015.6hPa Calm     83% 0in /  0.0mm 0 W/m2
20:33 55 °F /  12.8 °C 50 °F /  10 °C 30in /  1015.6hPa Calm     83% 0in /  0.0mm 0 W/m2
20:38 55 °F /  12.8 °C 50.4 °F /  10.2 °C 30in /  1015.6hPa Calm     84% 0in /  0.0mm 0 W/m2
20:43 55 °F /  12.8 °C 50.4 °F /  10.2 °C 30in /  1015.6hPa Calm     84% 0in /  0.0mm 0 W/m2
20:48 55 °F /  12.8 °C 50.4 °F /  10.2 °C 30in /  1015.6hPa Calm   1mph /  1.6km/h 84% 0in /  0.0mm 0 W/m2
20:53 55 °F /  12.8 °C 50.4 °F /  10.2 °C 30in /  1015.2hPa Calm     84% 0in /  0.0mm 0 W/m2
20:58 55 °F /  12.8 °C 50.4 °F /  10.2 °C 30in /  1015.6hPa Calm     84% 0in /  0.0mm 0 W/m2
21:03 55 °F /  12.8 °C 50.5 °F /  10.3 °C 30in /  1015.2hPa Calm     85% 0in /  0.0mm 0 W/m2
21:08 55 °F /  12.8 °C 50.5 °F /  10.3 °C 30in /  1015.6hPa Calm   1mph /  1.6km/h 85% 0in /  0.0mm 0 W/m2
21:13 55 °F /  12.8 °C 50.5 °F /  10.3 °C 30in /  1015.6hPa Calm     85% 0in /  0.0mm 0 W/m2
21:18 54.9 °F /  12.7 °C 50.4 °F /  10.2 °C 30in /  1015.6hPa Calm   1mph /  1.6km/h 85% 0in /  0.0mm 0 W/m2
21:23 54.9 °F /  12.7 °C 50.4 °F /  10.2 °C 30in /  1015.6hPa Calm     85% 0in /  0.0mm 0 W/m2
21:28 54.9 °F /  12.7 °C 50.4 °F /  10.2 °C 30in /  1015.6hPa Calm     85% 0in /  0.0mm 0 W/m2
21:33 54.9 °F /  12.7 °C 50.7 °F /  10.4 °C 30in /  1015.6hPa Calm     86% 0in /  0.0mm 0 W/m2
21:38 54.9 °F /  12.7 °C 50.7 °F /  10.4 °C 30in /  1015.6hPa Calm   1mph /  1.6km/h 86% 0in /  0.0mm 0 W/m2
21:43 54.9 °F /  12.7 °C 50.7 °F /  10.4 °C 30in /  1015.6hPa West 0.9mph /  1.4km/h 1mph /  1.6km/h 86% 0in /  0.0mm 0 W/m2
21:48 55 °F /  12.8 °C 50.5 °F /  10.3 °C 30in /  1015.6hPa Calm   2mph /  3.2km/h 85% 0in /  0.0mm 0 W/m2
21:53 55 °F /  12.8 °C 50.9 °F /  10.5 °C 30in /  1015.6hPa SW 0.9mph /  1.4km/h 1mph /  1.6km/h 86% 0in /  0.0mm 0 W/m2
21:58 55.2 °F /  12.9 °C 50.7 °F /  10.4 °C 30in /  1015.6hPa East 0.9mph /  1.4km/h 3mph /  4.8km/h 85% 0in /  0.0mm 0 W/m2
22:03 55.4 °F /  13 °C 50.9 °F /  10.5 °C 30in /  1015.6hPa Calm   4mph /  6.4km/h 85% 0in /  0.0mm 0 W/m2
22:08 55.8 °F /  13.2 °C 51.1 °F /  10.6 °C 30in /  1015.6hPa East 0.9mph /  1.4km/h 1mph /  1.6km/h 84% 0in /  0.0mm 0 W/m2
22:13 55.8 °F /  13.2 °C 50.7 °F /  10.4 °C 30in /  1015.6hPa Calm   4mph /  6.4km/h 83% 0in /  0.0mm 0 W/m2
22:18 55.9 °F /  13.3 °C 50.9 °F /  10.5 °C 30in /  1015.6hPa Calm   2mph /  3.2km/h 83% 0in /  0.0mm 0 W/m2
22:23 56.1 °F /  13.4 °C 50.7 °F /  10.4 °C 30in /  1015.6hPa East 0.9mph /  1.4km/h 2mph /  3.2km/h 82% 0in /  0.0mm 0 W/m2
22:28 56.5 °F /  13.6 °C 50.4 °F /  10.2 °C 30in /  1015.6hPa NW 0.9mph /  1.4km/h 2mph /  3.2km/h 80% 0in /  0.0mm 0 W/m2
22:33 56.8 °F /  13.8 °C 50.4 °F /  10.2 °C 30in /  1015.6hPa NW 0.9mph /  1.4km/h 4mph /  6.4km/h 79% 0in /  0.0mm 0 W/m2
22:38 57.4 °F /  14.1 °C 50.9 °F /  10.5 °C 30in /  1015.6hPa NW 4mph /  6.4km/h 6mph /  9.7km/h 79% 0in /  0.0mm 0 W/m2
22:43 57.6 °F /  14.2 °C 51.1 °F /  10.6 °C 30in /  1015.6hPa NW 2.9mph /  4.7km/h 8mph /  12.9km/h 79% 0in /  0.0mm 0 W/m2
22:48 57.4 °F /  14.1 °C 51.3 °F /  10.7 °C 30in /  1015.6hPa WNW 4mph /  6.4km/h 6mph /  9.7km/h 80% 0in /  0.0mm 0 W/m2
22:53 57.4 °F /  14.1 °C 51.3 °F /  10.7 °C 30in /  1015.6hPa WSW 4mph /  6.4km/h 7mph /  11.3km/h 80% 0in /  0.0mm 0 W/m2
22:58 57 °F /  13.9 °C 51.3 °F /  10.7 °C 30in /  1015.9hPa WNW 6.9mph /  11.1km/h 7mph /  11.3km/h 81% 0in /  0.0mm 0 W/m2
23:03 56.7 °F /  13.7 °C 51.3 °F /  10.7 °C 30in /  1015.6hPa WSW 4.9mph /  7.9km/h 12mph /  19.3km/h 82% 0in /  0.0mm 0 W/m2
23:08 56.5 °F /  13.6 °C 51.4 °F /  10.8 °C 30in /  1015.9hPa WSW 4.9mph /  7.9km/h 7mph /  11.3km/h 83% 0in /  0.0mm 0 W/m2
23:13 56.1 °F /  13.4 °C 51.4 °F /  10.8 °C 30in /  1015.9hPa WNW 2mph /  3.2km/h 8mph /  12.9km/h 84% 0in /  0.0mm 0 W/m2
23:18 55.9 °F /  13.3 °C 51.3 °F /  10.7 °C 30in /  1015.9hPa WNW 4.9mph /  7.9km/h 6mph /  9.7km/h 84% 0in /  0.0mm 0 W/m2
23:23 55.8 °F /  13.2 °C 51.3 °F /  10.7 °C 30in /  1015.9hPa NW 2.9mph /  4.7km/h 7mph /  11.3km/h 85% 0in /  0.0mm 0 W/m2
23:28 55.6 °F /  13.1 °C 51.1 °F /  10.6 °C 30in /  1015.9hPa NNW 2.9mph /  4.7km/h 7mph /  11.3km/h 85% 0in /  0.0mm 0 W/m2
23:33 55.4 °F /  13 °C 51.3 °F /  10.7 °C 30in /  1015.6hPa Calm   2mph /  3.2km/h 86% 0in /  0.0mm 0 W/m2
23:38 55.2 °F /  12.9 °C 51.1 °F /  10.6 °C 30in /  1015.9hPa NW 2mph /  3.2km/h 3mph /  4.8km/h 86% 0in /  0.0mm 0 W/m2
23:43 55.2 °F /  12.9 °C 51.1 °F /  10.6 °C 30in /  1015.6hPa WNW 0.9mph /  1.4km/h 3mph /  4.8km/h 86% 0in /  0.0mm 0 W/m2
23:48 55 °F /  12.8 °C 51.3 °F /  10.7 °C 30in /  1015.6hPa NW 2.9mph /  4.7km/h 5mph /  8km/h 87% 0in /  0.0mm 0 W/m2
23:53 55 °F /  12.8 °C 51.3 °F /  10.7 °C 30in /  1015.6hPa North 2.9mph /  4.7km/h 4mph /  6.4km/h 87% 0in /  0.0mm 0 W/m2
23:58 55 °F /  12.8 °C 51.3 °F /  10.7 °C 30in /  1015.6hPa WNW 0.9mph /  1.4km/h 3mph /  4.8km/h 87% 0in /  0.0mm 0 W/m2
Juneau County Weather
Compliments of Weather Underground - 4 mb